createdAt,value
2023-03-07T00:01:10.303Z,100490.02
2023-03-07T00:03:38.065Z,100493.65
2023-03-07T00:06:09.583Z,100501.01
2023-03-07T00:08:37.628Z,100484.46
2023-03-07T00:11:09.180Z,100488.09
2023-03-07T00:13:39.264Z,100488.09
2023-03-07T00:16:09.621Z,100490.57
2023-03-07T00:18:37.697Z,100480.83
2023-03-07T00:21:08.411Z,100488.19
2023-03-07T00:23:38.024Z,100485.47
2023-03-07T00:26:12.952Z,100479.00
2023-03-07T00:28:40.917Z,100485.47
2023-03-07T00:31:12.128Z,100483.90
2023-03-07T00:33:40.626Z,100476.31
2023-03-07T00:36:20.319Z,100474.71
2023-03-07T00:38:48.981Z,100476.31
2023-03-07T00:41:22.343Z,100476.74
2023-03-07T00:43:50.213Z,100474.02
2023-03-07T00:46:20.088Z,100467.23
2023-03-07T00:48:48.077Z,100470.43
2023-03-07T00:51:18.795Z,100472.45
2023-03-07T00:53:46.662Z,100472.55
2023-03-07T00:56:18.669Z,100480.14
2023-03-07T00:58:47.412Z,100469.61
2023-03-07T01:01:18.938Z,100466.11
2023-03-07T01:03:46.835Z,100469.71
2023-03-07T01:06:17.282Z,100467.00
2023-03-07T01:08:45.352Z,100468.24
2023-03-07T01:11:14.269Z,100462.35
2023-03-07T01:13:42.249Z,100466.77
2023-03-07T01:16:24.689Z,100458.27
2023-03-07T01:18:56.190Z,100464.05
2023-03-07T01:21:29.705Z,100453.95
2023-03-07T01:23:57.796Z,100459.28
2023-03-07T01:26:27.847Z,100454.11
2023-03-07T01:28:57.691Z,100457.02
2023-03-07T01:31:26.806Z,100454.96
2023-03-07T01:33:55.474Z,100452.61
2023-03-07T01:36:32.048Z,100461.90
2023-03-07T01:39:07.526Z,100462.22
2023-03-07T01:41:37.022Z,100467.45
2023-03-07T01:44:14.510Z,100466.18
2023-03-07T01:46:59.380Z,100467.78
2023-03-07T01:49:35.127Z,100461.44
2023-03-07T01:52:14.315Z,100461.90
2023-03-07T01:54:49.930Z,100458.63
2023-03-07T01:57:23.060Z,100460.98
2023-03-07T01:59:55.661Z,100454.96
2023-03-07T02:02:24.048Z,100459.87
2023-03-07T02:05:18.999Z,100453.82
2023-03-07T02:07:50.708Z,100447.84
2023-03-07T02:10:21.449Z,100444.66
2023-03-07T02:12:49.864Z,100445.02
2023-03-07T02:15:17.946Z,100440.25
2023-03-07T02:17:46.454Z,100443.87
2023-03-07T02:20:37.086Z,100437.86
2023-03-07T02:23:05.956Z,100427.79
2023-03-07T02:25:44.702Z,100432.79
2023-03-07T02:28:17.177Z,100429.13
2023-03-07T02:31:01.933Z,100439.70
2023-03-07T02:33:30.064Z,100432.79
2023-03-07T02:36:03.055Z,100433.55
2023-03-07T02:38:34.156Z,100439.37
2023-03-07T02:41:02.097Z,100434.46
2023-03-07T02:43:30.417Z,100434.03
2023-03-07T02:45:58.114Z,100431.65
2023-03-07T02:48:25.831Z,100435.60
2023-03-07T02:50:53.500Z,100428.80
2023-03-07T02:53:21.119Z,100435.27
2023-03-07T02:55:48.944Z,100431.65
2023-03-07T02:58:16.796Z,100429.72
2023-03-07T03:00:44.552Z,100426.41
2023-03-07T03:03:13.238Z,100430.05
2023-03-07T03:05:40.882Z,100428.48
2023-03-07T03:08:08.611Z,100418.83
2023-03-07T03:10:36.354Z,100416.48
2023-03-07T03:13:04.044Z,100418.50
2023-03-07T03:15:31.827Z,100413.66
2023-03-07T03:17:59.629Z,100419.19
2023-03-07T03:20:29.041Z,100421.58
2023-03-07T03:22:56.807Z,100418.41
2023-03-07T03:25:26.164Z,100406.60
2023-03-07T03:27:53.935Z,100414.68
2023-03-07T03:30:21.658Z,100416.70
2023-03-07T03:32:49.656Z,100413.53
2023-03-07T03:35:17.462Z,100410.26
2023-03-07T03:37:45.250Z,100407.74
2023-03-07T03:40:15.553Z,100404.05
2023-03-07T03:42:43.808Z,100404.48
2023-03-07T03:45:12.532Z,100404.84
2023-03-07T03:47:40.167Z,100409.58
2023-03-07T03:50:08.662Z,100404.70
2023-03-07T03:52:37.538Z,100406.63
2023-03-07T03:55:06.107Z,100406.30
2023-03-07T03:57:33.739Z,100396.23
2023-03-07T04:00:01.471Z,100404.60
2023-03-07T04:02:31.689Z,100399.41
2023-03-07T04:04:59.492Z,100393.75
2023-03-07T04:07:30.246Z,100390.58
2023-03-07T04:09:57.877Z,100389.34
2023-03-07T04:12:25.581Z,100388.98
2023-03-07T04:14:53.308Z,100375.27
2023-03-07T04:17:20.936Z,100379.78
2023-03-07T04:19:48.568Z,100374.62
2023-03-07T04:22:16.198Z,100372.23
2023-03-07T04:24:43.854Z,100371.88
2023-03-07T04:27:11.671Z,100375.96
2023-03-07T04:29:39.307Z,100371.09
2023-03-07T04:32:07.201Z,100361.80
2023-03-07T04:34:35.025Z,100373.48
2023-03-07T04:37:02.640Z,100376.61
2023-03-07T04:39:30.339Z,100380.70
2023-03-07T04:41:57.983Z,100365.30
2023-03-07T04:44:25.747Z,100368.14
2023-03-07T04:46:53.357Z,100358.89
2023-03-07T04:49:21.120Z,100358.98
2023-03-07T04:51:49.014Z,100363.96
2023-03-07T04:54:16.790Z,100350.71
2023-03-07T04:56:44.526Z,100359.19
2023-03-07T04:59:12.628Z,100346.63
2023-03-07T05:01:40.383Z,100351.14
2023-03-07T05:04:08.084Z,100337.93
2023-03-07T05:06:35.834Z,100342.31
2023-03-07T05:09:03.835Z,100326.48
2023-03-07T05:11:31.578Z,100337.14
2023-03-07T05:13:59.444Z,100331.48
2023-03-07T05:16:27.266Z,100330.67
2023-03-07T05:18:54.955Z,100334.30
2023-03-07T05:21:22.595Z,100331.00
2023-03-07T05:23:50.930Z,100320.04
2023-03-07T05:26:18.580Z,100326.38
2023-03-07T05:28:46.207Z,100322.30
2023-03-07T05:31:14.038Z,100327.17
2023-03-07T05:33:43.748Z,100316.77
2023-03-07T05:36:11.375Z,100322.30
2023-03-07T05:38:39.129Z,100317.46
2023-03-07T05:41:06.992Z,100322.43
2023-03-07T05:43:34.818Z,100321.19
2023-03-07T05:46:02.573Z,100313.50
2023-03-07T05:48:30.347Z,100310.20
2023-03-07T05:51:02.205Z,100313.01
2023-03-07T05:53:29.901Z,100310.98
2023-03-07T05:55:57.567Z,100317.33
2023-03-07T05:58:25.244Z,100312.45
2023-03-07T06:00:52.865Z,100313.73
2023-03-07T06:03:20.614Z,100311.54
2023-03-07T06:05:52.168Z,100307.59
2023-03-07T06:08:19.913Z,100309.64
2023-03-07T06:10:51.302Z,100301.93
2023-03-07T06:13:24.178Z,100293.59
2023-03-07T06:15:56.201Z,100298.00
2023-03-07T06:18:25.890Z,100301.47
2023-03-07T06:20:58.066Z,100294.90
2023-03-07T06:23:27.045Z,100297.28
2023-03-07T06:25:55.076Z,100291.20
2023-03-07T06:28:23.515Z,100299.80
2023-03-07T06:30:51.450Z,100291.63
2023-03-07T06:33:19.095Z,100293.09
2023-03-07T06:35:47.477Z,100286.52
2023-03-07T06:38:17.043Z,100284.01
2023-03-07T06:40:44.784Z,100288.65
2023-03-07T06:43:13.373Z,100290.58
2023-03-07T06:45:41.115Z,100290.32
2023-03-07T06:48:08.771Z,100286.59
2023-03-07T06:50:36.441Z,100281.13
2023-03-07T06:53:04.164Z,100285.77
2023-03-07T06:55:31.843Z,100287.21
2023-03-07T06:57:59.503Z,100279.36
2023-03-07T07:00:27.228Z,100272.01
2023-03-07T07:02:55.236Z,100276.42
2023-03-07T07:05:23.036Z,100283.09
2023-03-07T07:07:50.765Z,100276.48
2023-03-07T07:10:18.557Z,100279.66
2023-03-07T07:12:46.188Z,100281.09
2023-03-07T07:15:13.852Z,100281.42
2023-03-07T07:17:41.568Z,100287.63
2023-03-07T07:20:12.404Z,100272.43
2023-03-07T07:22:40.168Z,100281.78
2023-03-07T07:25:08.131Z,100278.68
2023-03-07T07:27:37.670Z,100270.24
2023-03-07T07:30:06.511Z,100281.78
2023-03-07T07:32:34.415Z,100275.93
2023-03-07T07:35:02.083Z,100284.37
2023-03-07T07:37:29.694Z,100281.16
2023-03-07T07:39:57.363Z,100285.31
2023-03-07T07:42:24.973Z,100283.16
2023-03-07T07:44:52.677Z,100280.77
2023-03-07T07:47:20.391Z,100278.41
2023-03-07T07:49:48.132Z,100282.99
2023-03-07T07:52:15.833Z,100277.01
2023-03-07T07:54:43.601Z,100280.48
2023-03-07T07:57:11.267Z,100273.22
2023-03-07T07:59:38.992Z,100267.07
2023-03-07T08:02:06.758Z,100265.34
2023-03-07T08:04:34.422Z,100270.50
2023-03-07T08:07:02.141Z,100258.99
2023-03-07T08:09:29.863Z,100271.16
2023-03-07T08:11:57.565Z,100264.35
2023-03-07T08:14:25.280Z,100262.91
2023-03-07T08:16:52.909Z,100268.44
2023-03-07T08:19:20.615Z,100273.34
2023-03-07T08:21:48.294Z,100268.44
2023-03-07T08:24:15.973Z,100266.58
2023-03-07T08:26:43.616Z,100267.82
2023-03-07T08:29:11.280Z,100254.87
2023-03-07T08:31:39.067Z,100255.49
2023-03-07T08:34:06.792Z,100250.78
2023-03-07T08:36:34.619Z,100245.09
2023-03-07T08:39:02.339Z,100246.50
2023-03-07T08:41:30.207Z,100237.80
2023-03-07T08:43:57.938Z,100242.41
2023-03-07T08:46:25.912Z,100236.72
2023-03-07T08:48:54.781Z,100233.71
2023-03-07T08:51:22.448Z,100235.15
2023-03-07T08:53:50.232Z,100243.20
2023-03-07T08:56:19.859Z,100236.88
2023-03-07T08:58:47.848Z,100239.53
2023-03-07T09:01:15.711Z,100241.27
2023-03-07T09:03:43.860Z,100246.95
2023-03-07T09:06:20.666Z,100241.10
2023-03-07T09:08:49.334Z,100237.15
2023-03-07T09:11:19.099Z,100238.23
2023-03-07T09:13:52.410Z,100234.73
2023-03-07T09:16:21.331Z,100233.95
2023-03-07T09:18:49.121Z,100235.80
2023-03-07T09:21:16.969Z,100240.25
2023-03-07T09:23:45.231Z,100225.90
2023-03-07T09:26:13.017Z,100220.21
2023-03-07T09:28:40.727Z,100213.44
2023-03-07T09:31:10.028Z,100218.25
2023-03-07T09:33:37.928Z,100215.20
2023-03-07T09:36:11.136Z,100210.50
2023-03-07T09:38:39.876Z,100212.23
2023-03-07T09:41:34.816Z,100209.09
2023-03-07T09:44:12.676Z,100207.20
2023-03-07T09:46:59.086Z,100202.16
2023-03-07T09:49:46.088Z,100192.05
2023-03-07T09:52:17.877Z,100189.54
2023-03-07T09:54:53.236Z,100172.79
2023-03-07T09:57:27.455Z,100185.09
2023-03-07T10:00:02.371Z,100178.16
2023-03-07T10:02:49.225Z,100172.34
2023-03-07T10:06:05.733Z,100167.10
2023-03-07T10:08:34.792Z,100161.94
2023-03-07T10:11:41.784Z,100171.68
2023-03-07T10:14:26.964Z,100156.05
2023-03-07T10:17:06.938Z,100149.12
2023-03-07T10:19:53.200Z,100141.04
2023-03-07T10:22:38.171Z,100146.86
2023-03-07T10:25:20.965Z,100144.67
2023-03-07T10:27:50.744Z,100133.62
2023-03-07T10:30:20.511Z,100128.52
2023-03-07T10:33:01.479Z,100127.77
2023-03-07T10:35:42.992Z,100114.16
2023-03-07T10:38:25.050Z,100118.91
2023-03-07T10:41:00.727Z,100120.02
2023-03-07T10:43:33.454Z,100108.96
2023-03-07T10:46:24.828Z,100100.72
2023-03-07T10:49:01.422Z,100097.19
2023-03-07T10:51:47.680Z,100087.51
2023-03-07T10:54:18.253Z,100082.09
2023-03-07T10:57:19.206Z,100080.48
2023-03-07T10:59:49.488Z,100062.27
2023-03-07T11:02:32.681Z,100070.73
2023-03-07T11:05:00.659Z,100073.09
2023-03-07T11:07:31.477Z,100062.37
2023-03-07T11:10:01.657Z,100058.21
2023-03-07T11:12:31.868Z,100059.88
2023-03-07T11:15:13.058Z,100051.34
2023-03-07T11:17:45.089Z,100054.52
2023-03-07T11:20:30.230Z,100057.85
2023-03-07T11:23:20.226Z,100043.14
2023-03-07T11:25:48.011Z,100038.40
2023-03-07T11:28:35.816Z,100052.16
2023-03-07T11:31:35.747Z,100044.38
2023-03-07T11:34:30.995Z,100041.34
2023-03-07T11:37:23.775Z,100026.66
2023-03-07T11:40:29.582Z,100030.87
2023-03-07T11:43:11.932Z,100014.55
2023-03-07T11:45:56.267Z,100018.32
2023-03-07T11:48:50.918Z,100017.96
2023-03-07T11:51:27.903Z,100012.66
2023-03-07T11:54:07.672Z,100005.70
2023-03-07T11:56:42.130Z,100015.31
2023-03-07T11:59:28.465Z,100004.13
2023-03-07T12:02:03.485Z,100005.50
2023-03-07T12:04:59.126Z,100006.38
2023-03-07T12:08:07.891Z,100011.22
2023-03-07T12:10:44.268Z,100004.52
2023-03-07T12:13:33.101Z,100007.85
2023-03-07T12:16:20.784Z,99981.34
2023-03-07T12:19:17.819Z,100000.10
2023-03-07T12:22:07.262Z,99987.32
2023-03-07T12:25:02.006Z,99976.23
2023-03-07T12:27:36.319Z,99973.48
2023-03-07T12:30:16.547Z,99959.23
2023-03-07T12:32:44.797Z,99952.75
2023-03-07T12:35:33.659Z,99953.87
2023-03-07T12:38:30.681Z,99947.95
2023-03-07T12:41:31.472Z,99941.87
2023-03-07T12:44:04.776Z,99932.91
2023-03-07T12:46:44.810Z,99935.59
2023-03-07T12:49:17.178Z,99927.80
2023-03-07T12:51:50.449Z,99922.60
2023-03-07T12:54:35.266Z,99922.18
2023-03-07T12:57:26.961Z,99909.23
2023-03-07T13:00:00.981Z,99929.80
2023-03-07T13:02:31.384Z,99922.80
2023-03-07T13:05:01.229Z,99925.45
2023-03-07T13:07:30.962Z,99930.45
2023-03-07T13:10:00.552Z,99924.27
2023-03-07T13:12:37.132Z,99922.08
2023-03-07T13:15:09.245Z,99916.91
2023-03-07T13:17:36.806Z,99919.86
2023-03-07T13:20:16.580Z,99911.09
2023-03-07T13:22:44.365Z,99905.21
2023-03-07T13:25:21.306Z,99898.11
2023-03-07T13:27:54.790Z,99899.68
2023-03-07T13:30:26.817Z,99904.23
2023-03-07T13:32:57.128Z,99897.46
2023-03-07T13:35:34.587Z,99899.03
2023-03-07T13:38:33.186Z,99884.57
2023-03-07T13:41:03.446Z,99884.97
2023-03-07T13:43:31.092Z,99873.09
2023-03-07T13:46:00.886Z,99865.84
2023-03-07T13:48:31.456Z,99873.29
2023-03-07T13:51:02.028Z,99870.25
2023-03-07T13:53:32.196Z,99863.05
2023-03-07T13:56:12.179Z,99858.64
2023-03-07T13:58:47.068Z,99872.18
2023-03-07T14:01:19.501Z,99878.27
2023-03-07T14:03:52.453Z,99863.52
2023-03-07T14:06:34.215Z,99884.54
2023-03-07T14:09:06.165Z,99883.16
2023-03-07T14:11:53.296Z,99885.42
2023-03-07T14:14:20.954Z,99907.73
2023-03-07T14:49:57.489Z,99884.25
2023-03-07T14:52:31.395Z,99886.02
2023-03-07T14:55:05.203Z,99903.41
2023-03-07T14:57:40.442Z,99892.29
2023-03-07T15:00:29.942Z,99896.70
2023-03-07T15:03:09.294Z,99895.85
2023-03-07T15:05:49.803Z,99897.13
2023-03-07T15:08:25.619Z,99898.11
2023-03-07T15:11:01.599Z,99901.74
2023-03-07T15:13:37.074Z,99901.68
2023-03-07T15:16:10.134Z,99900.01
2023-03-07T15:18:46.224Z,99906.48
2023-03-07T15:21:20.572Z,99902.79
2023-03-07T15:23:58.921Z,99905.63
2023-03-07T15:26:28.516Z,99913.77
2023-03-07T15:29:01.757Z,99905.44
2023-03-07T15:31:49.029Z,99909.85
2023-03-07T15:34:26.256Z,99919.37
2023-03-07T15:36:54.568Z,99914.95
2023-03-07T15:40:02.288Z,99915.15
2023-03-07T15:42:30.770Z,99916.13
2023-03-07T15:45:04.101Z,99920.45
2023-03-07T15:47:33.630Z,99908.48
2023-03-07T15:50:05.537Z,99917.70
2023-03-07T15:52:36.312Z,99919.95
2023-03-07T15:55:09.255Z,99917.11
2023-03-07T15:57:59.521Z,99916.72
2023-03-07T16:00:40.184Z,99910.84
2023-03-07T16:03:29.059Z,99911.23
2023-03-07T16:05:59.003Z,99911.62
2023-03-07T16:08:27.290Z,99919.04
2023-03-07T16:11:02.716Z,99920.84
2023-03-07T16:13:40.682Z,99924.73
2023-03-07T16:16:15.691Z,99925.91
2023-03-07T16:18:44.171Z,99916.09
2023-03-07T16:21:16.126Z,99928.30
2023-03-07T16:23:45.027Z,99931.14
2023-03-07T16:26:26.291Z,99918.84
2023-03-07T16:28:55.185Z,99934.64
2023-03-07T16:31:23.050Z,99942.39
2023-03-07T16:33:50.805Z,99936.99
2023-03-07T16:36:18.692Z,99933.56
2023-03-07T16:38:48.019Z,99932.68
2023-03-07T16:41:18.383Z,99934.73
2023-03-07T16:43:48.235Z,99927.45
2023-03-07T16:46:18.635Z,99927.77
2023-03-07T16:48:47.218Z,99933.76
2023-03-07T16:51:20.520Z,99941.47
2023-03-07T16:53:49.422Z,99944.05
2023-03-07T16:56:37.142Z,99952.88
2023-03-07T16:59:05.174Z,99961.81
2023-03-07T17:01:33.054Z,99966.84
2023-03-07T17:04:00.909Z,99968.13
2023-03-07T17:06:38.876Z,99979.99
2023-03-07T17:09:09.964Z,99979.21
2023-03-07T17:11:40.243Z,99984.11
2023-03-07T17:14:10.234Z,99990.30
2023-03-07T17:16:47.578Z,100008.02
2023-03-07T17:19:23.148Z,100011.55
2023-03-07T17:21:50.862Z,100021.36
2023-03-07T17:24:18.678Z,100038.88
2023-03-07T17:26:47.868Z,100039.54
2023-03-07T17:29:38.309Z,100045.59
2023-03-07T17:32:06.898Z,100039.48
2023-03-07T17:34:35.970Z,100041.34
2023-03-07T17:37:04.910Z,100047.06
2023-03-07T17:39:33.278Z,100045.20
2023-03-07T17:42:01.924Z,100057.98
2023-03-07T17:44:30.413Z,100069.40
2023-03-07T17:46:58.377Z,100069.85
2023-03-07T17:49:27.785Z,100069.23
2023-03-07T17:51:55.772Z,100079.80
2023-03-07T17:54:23.530Z,100081.43
2023-03-07T17:56:52.001Z,100086.95
2023-03-07T17:59:19.825Z,100087.91
2023-03-07T18:01:47.597Z,100091.24
2023-03-07T18:04:15.377Z,100088.72
2023-03-07T18:06:43.236Z,100093.59
2023-03-07T18:09:11.036Z,100109.71
2023-03-07T18:11:38.697Z,100105.30
2023-03-07T18:14:06.338Z,100104.19
2023-03-07T18:16:34.115Z,100103.57
2023-03-07T18:19:04.071Z,100120.73
2023-03-07T18:21:32.785Z,100124.85
2023-03-07T18:24:00.628Z,100138.23
2023-03-07T18:26:29.075Z,100140.78
2023-03-07T18:28:57.589Z,100140.16
2023-03-07T18:31:29.799Z,100137.31
2023-03-07T18:33:57.864Z,100147.55
2023-03-07T18:36:26.947Z,100146.44
2023-03-07T18:38:54.671Z,100142.84
2023-03-07T18:41:24.277Z,100143.92
2023-03-07T18:43:53.768Z,100143.76
2023-03-07T18:46:23.621Z,100147.41
2023-03-07T18:48:51.610Z,100143.46
2023-03-07T18:51:26.293Z,100140.16
2023-03-07T18:54:03.573Z,100143.13
2023-03-07T18:56:31.902Z,100147.26
2023-03-07T18:59:00.557Z,100153.70
2023-03-07T19:01:31.209Z,100156.67
2023-03-07T19:04:03.182Z,100167.56
2023-03-07T19:06:37.085Z,100166.32
2023-03-07T19:09:05.005Z,100169.00
2023-03-07T19:11:33.246Z,100167.40
2023-03-07T19:14:01.132Z,100168.84
2023-03-07T19:16:29.634Z,100168.51
2023-03-07T19:18:58.111Z,100168.22
2023-03-07T19:21:28.171Z,100169.30
2023-03-07T19:23:58.047Z,100181.46
2023-03-07T19:26:26.529Z,100195.95
2023-03-07T19:28:55.856Z,100193.55
2023-03-07T19:31:30.096Z,100192.15
2023-03-07T19:33:58.434Z,100190.55
2023-03-07T19:36:28.737Z,100199.87
2023-03-07T19:38:59.942Z,100201.14
2023-03-07T19:41:30.053Z,100215.01
2023-03-07T19:43:59.689Z,100208.99
2023-03-07T19:46:28.200Z,100232.18
2023-03-07T19:48:56.038Z,100231.52
2023-03-07T19:51:26.559Z,100219.85
2023-03-07T19:53:57.165Z,100213.24
2023-03-07T19:56:30.485Z,100216.41
2023-03-07T19:59:00.370Z,100218.12
2023-03-07T20:01:29.815Z,100220.83
2023-03-07T20:03:57.925Z,100222.86
2023-03-07T20:06:30.738Z,100230.12
2023-03-07T20:09:00.093Z,100219.72
2023-03-07T20:11:30.793Z,100224.59
2023-03-07T20:14:01.032Z,100237.34
2023-03-07T20:16:30.378Z,100236.55
2023-03-07T20:19:00.977Z,100231.95
2023-03-07T20:21:29.846Z,100234.95
2023-03-07T20:24:01.427Z,100237.02
2023-03-07T20:26:35.083Z,100244.60
2023-03-07T20:29:05.104Z,100241.46
2023-03-07T20:31:33.662Z,100242.67
2023-03-07T20:34:01.810Z,100243.78
2023-03-07T20:36:31.918Z,100254.02
2023-03-07T20:39:02.179Z,100254.97
2023-03-07T20:41:32.924Z,100260.20
2023-03-07T20:44:06.751Z,100260.49
2023-03-07T20:46:35.484Z,100258.47
2023-03-07T20:49:04.180Z,100264.16
2023-03-07T20:51:34.402Z,100262.55
2023-03-07T20:54:04.924Z,100269.03
2023-03-07T20:56:35.122Z,100278.80
2023-03-07T20:59:03.093Z,100277.66
2023-03-07T21:01:32.916Z,100291.85
2023-03-07T21:04:07.718Z,100300.81
2023-03-07T21:06:36.792Z,100294.18
2023-03-07T21:09:09.693Z,100290.91
2023-03-07T21:11:39.665Z,100290.41
2023-03-07T21:14:08.780Z,100288.84
2023-03-07T21:16:36.801Z,100288.98
2023-03-07T21:19:06.688Z,100291.79
2023-03-07T21:21:36.628Z,100290.71
2023-03-07T21:24:05.267Z,100296.40
2023-03-07T21:26:35.618Z,100300.32
2023-03-07T21:29:04.970Z,100298.72
2023-03-07T21:31:36.112Z,100302.84
2023-03-07T21:34:07.309Z,100305.98
2023-03-07T21:36:35.697Z,100303.95
2023-03-07T21:39:06.338Z,100296.83
2023-03-07T21:41:34.315Z,100312.59
2023-03-07T21:44:02.877Z,100304.09
2023-03-07T21:46:30.959Z,100306.11
2023-03-07T21:49:02.688Z,100313.86
2023-03-07T21:51:30.616Z,100319.65
2023-03-07T21:53:58.563Z,100324.88
2023-03-07T21:56:26.825Z,100328.48
2023-03-07T21:58:54.634Z,100325.02
2023-03-07T22:01:26.717Z,100334.79
2023-03-07T22:03:56.879Z,100329.23
2023-03-07T22:06:25.790Z,100343.75
2023-03-07T22:08:53.522Z,100337.60
2023-03-07T22:11:21.422Z,100338.06
2023-03-07T22:13:49.178Z,100350.68
2023-03-07T22:16:19.078Z,100345.58
2023-03-07T22:18:47.039Z,100349.54
2023-03-07T22:21:15.898Z,100367.36
2023-03-07T22:23:43.886Z,100347.18
2023-03-07T22:26:13.197Z,100348.75
2023-03-07T22:28:44.217Z,100344.99
2023-03-07T22:31:13.626Z,100348.63
2023-03-07T22:33:42.631Z,100347.70
2023-03-07T22:36:14.001Z,100353.82
2023-03-07T22:38:43.891Z,100350.98
2023-03-07T22:41:17.990Z,100348.30
2023-03-07T22:43:45.933Z,100351.11
2023-03-07T22:46:13.847Z,100361.70
2023-03-07T22:48:42.135Z,100362.95
2023-03-07T22:51:15.466Z,100360.10
2023-03-07T22:53:43.173Z,100348.10
2023-03-07T22:56:19.764Z,100355.95
2023-03-07T22:58:47.482Z,100350.59
2023-03-07T23:01:17.506Z,100350.59
2023-03-07T23:03:45.487Z,100357.84
2023-03-07T23:06:14.112Z,100349.34
2023-03-07T23:08:44.680Z,100356.60
2023-03-07T23:11:13.070Z,100359.12
2023-03-07T23:13:41.052Z,100355.49
2023-03-07T23:16:12.257Z,100344.93
2023-03-07T23:18:41.519Z,100343.36
2023-03-07T23:21:11.562Z,100358.79
2023-03-07T23:23:39.950Z,100360.36
2023-03-07T23:26:08.595Z,100364.91
2023-03-07T23:28:36.597Z,100358.46
2023-03-07T23:31:04.666Z,100347.90
2023-03-07T23:33:32.510Z,100355.95
2023-03-07T23:36:01.431Z,100342.08
2023-03-07T23:38:29.272Z,100349.34
2023-03-07T23:41:00.182Z,100352.68
2023-03-07T23:43:27.932Z,100357.52
2023-03-07T23:45:55.642Z,100352.68
2023-03-07T23:48:23.439Z,100345.25
2023-03-07T23:50:51.181Z,100348.10
2023-03-07T23:53:18.861Z,100343.55
2023-03-07T23:55:46.517Z,100343.42
2023-03-07T23:58:14.297Z,100357.91
